Time;durP1;ratioP1;P1;durP2;ratioP2;P2;SDS_P1;SDS_P2;PMS_P1;PMS_P2;Temp;Humidity;BMP_temperature;BMP_pressure;BME280_temperature;BME280_humidity;BME280_pressure;Samples;Min_cycle;Max_cycle;Signal;HPM_P1;HPM_P2
2024/01/21 00:01:53;;;;;;;5.28;2.13;;;10.80;56.00;;;;;;5036433;28;20511;-80
2024/01/21 00:04:20;;;;;;;6.68;2.60;;;10.80;56.00;;;;;;5039408;28;20557;-81
2024/01/21 00:06:45;;;;;;;3.45;1.70;;;10.70;56.00;;;;;;5041075;28;20131;-81
2024/01/21 00:09:11;;;;;;;5.55;1.95;;;10.80;56.20;;;;;;5058985;28;20165;-81
2024/01/21 00:11:38;;;;;;;3.10;1.83;;;10.70;56.00;;;;;;5056730;28;20128;-81
2024/01/21 00:14:04;;;;;;;7.78;2.88;;;10.70;56.10;;;;;;5024257;28;20405;-81
2024/01/21 00:16:30;;;;;;;4.88;2.25;;;10.70;56.20;;;;;;5057556;28;20040;-82
2024/01/21 00:18:56;;;;;;;7.80;3.08;;;10.70;56.20;;;;;;5041997;28;20511;-82
2024/01/21 00:21:22;;;;;;;4.75;2.03;;;10.70;56.30;;;;;;5059185;28;20082;-82
2024/01/21 00:23:48;;;;;;;5.22;2.13;;;10.70;56.30;;;;;;5041012;28;20059;-83
2024/01/21 00:26:15;;;;;;;5.40;1.92;;;10.70;56.40;;;;;;5039570;28;20056;-82
2024/01/21 00:28:41;;;;;;;4.88;1.75;;;10.60;56.30;;;;;;5058780;28;20028;-82
2024/01/21 00:31:07;;;;;;;4.20;1.90;;;10.70;56.50;;;;;;5025097;28;20396;-82
2024/01/21 00:33:33;;;;;;;3.88;1.95;;;10.70;56.60;;;;;;5041501;28;20043;-83
2024/01/21 00:35:59;;;;;;;4.38;1.83;;;10.60;56.50;;;;;;5058791;28;20025;-82
2024/01/21 00:38:25;;;;;;;4.53;2.20;;;10.60;56.50;;;;;;5039012;28;20154;-87
2024/01/21 00:40:52;;;;;;;4.93;2.00;;;10.60;56.60;;;;;;5023177;28;20044;-80
2024/01/21 00:43:17;;;;;;;5.15;2.00;;;10.60;56.70;;;;;;5059726;28;20028;-82
2024/01/21 00:45:43;;;;;;;4.05;2.15;;;10.60;56.70;;;;;;5041511;28;20440;-82
2024/01/21 00:48:09;;;;;;;3.55;2.03;;;10.60;56.80;;;;;;5062480;28;20028;-83
2024/01/21 00:50:35;;;;;;;3.60;2.45;;;10.60;56.90;;;;;;5064768;28;20059;-84
2024/01/21 00:53:01;;;;;;;6.18;2.47;;;10.60;56.90;;;;;;5046173;28;20067;-83
2024/01/21 00:55:28;;;;;;;3.95;2.53;;;10.60;56.90;;;;;;5042684;28;20133;-84
2024/01/21 00:57:54;;;;;;;5.82;2.45;;;10.60;57.00;;;;;;5060392;28;20336;-84
2024/01/21 01:00:25;;;;;;;4.00;2.40;;;10.60;57.10;;;;;;5060812;28;20051;-83
2024/01/21 01:08:11;;;;;;;5.38;3.30;;;10.60;57.20;;;;;;5013211;28;20077;-70
2024/01/21 01:10:36;;;;;;;6.35;2.08;;;10.60;57.20;;;;;;4987039;28;20887;-69
2024/01/21 01:13:03;;;;;;;5.28;2.40;;;10.60;57.30;;;;;;5024506;28;20037;-69
2024/01/21 01:15:29;;;;;;;3.10;2.03;;;10.50;57.10;;;;;;5026160;28;20092;-69
2024/01/21 01:17:55;;;;;;;7.88;2.67;;;10.50;57.20;;;;;;5020650;28;20041;-69
2024/01/21 01:20:21;;;;;;;6.35;2.28;;;10.60;58.00;;;;;;5016313;28;20029;-70
2024/01/21 01:22:47;;;;;;;4.93;1.90;;;10.50;57.30;;;;;;5021672;28;20041;-70
2024/01/21 01:25:13;;;;;;;6.13;1.73;;;10.50;57.40;;;;;;5020140;28;20045;-69
2024/01/21 01:27:39;;;;;;;4.80;2.10;;;10.50;57.40;;;;;;5004348;28;20048;-70
2024/01/21 01:30:06;;;;;;;3.72;2.03;;;10.50;57.50;;;;;;5018639;28;20536;-71
2024/01/21 01:32:32;;;;;;;4.38;1.98;;;10.50;57.60;;;;;;5001785;28;20025;-71
2024/01/21 01:34:58;;;;;;;2.83;1.63;;;10.50;57.70;;;;;;5020305;28;20022;-71
2024/01/21 01:37:23;;;;;;;5.18;2.15;;;10.50;57.70;;;;;;5019117;28;20017;-71
2024/01/21 01:39:50;;;;;;;6.55;2.08;;;10.50;57.80;;;;;;5005448;28;20465;-71
2024/01/21 01:42:16;;;;;;;3.40;1.70;;;10.50;57.80;;;;;;5021396;28;20112;-70
2024/01/21 01:44:42;;;;;;;5.57;1.80;;;10.50;57.90;;;;;;5022686;28;20055;-70
2024/01/21 01:47:09;;;;;;;4.40;1.73;;;10.50;57.90;;;;;;5016970;28;20030;-70
2024/01/21 01:49:40;;;;;;;2.60;1.80;;;10.50;58.00;;;;;;5022527;28;20042;-70
2024/01/21 01:52:06;;;;;;;4.10;2.13;;;10.50;58.10;;;;;;5023074;28;20025;-70
2024/01/21 01:54:34;;;;;;;5.32;2.17;;;10.50;58.10;;;;;;5018578;28;20449;-70
2024/01/21 01:57:04;;;;;;;2.95;1.40;;;10.50;58.20;;;;;;5024882;28;20037;-70
2024/01/21 01:59:33;;;;;;;7.28;2.42;;;10.50;58.20;;;;;;5017513;28;20042;-70
2024/01/21 02:01:59;;;;;;;3.78;1.70;;;10.50;58.30;;;;;;5017159;28;20160;-70
2024/01/21 02:04:25;;;;;;;3.00;1.25;;;10.50;58.30;;;;;;5020642;28;20511;-70
2024/01/21 02:06:52;;;;;;;3.50;1.67;;;10.60;58.60;;;;;;4987299;28;20053;-71
2024/01/21 02:09:19;;;;;;;3.63;1.38;;;10.60;58.60;;;;;;5019911;28;20087;-71
2024/01/21 02:11:44;;;;;;;4.35;1.50;;;10.60;58.60;;;;;;5015638;28;20063;-70
2024/01/21 02:14:11;;;;;;;5.60;1.95;;;10.60;58.70;;;;;;5019760;28;20030;-70
2024/01/21 02:16:37;;;;;;;3.72;2.15;;;10.60;58.70;;;;;;5017416;28;20026;-70
2024/01/21 02:19:12;;;;;;;3.80;1.75;;;10.60;58.80;;;;;;5018137;28;20036;-70
2024/01/21 02:21:38;;;;;;;2.00;1.33;;;10.60;58.80;;;;;;5019253;28;20033;-70
2024/01/21 02:24:04;;;;;;;2.80;1.55;;;10.60;58.80;;;;;;5019207;28;20409;-72
2024/01/21 02:26:31;;;;;;;3.80;1.05;;;10.60;58.80;;;;;;5018519;28;20044;-71
2024/01/21 02:28:58;;;;;;;3.40;1.77;;;10.60;58.90;;;;;;5020763;28;20026;-71
2024/01/21 02:31:25;;;;;;;2.60;1.25;;;10.70;59.10;;;;;;5033637;23;20072;-72
2024/01/21 02:33:51;;;;;;;3.17;0.90;;;10.60;59.00;;;;;;5006189;28;20032;-72
2024/01/21 02:36:17;;;;;;;4.07;1.40;;;10.60;59.00;;;;;;4994445;28;20405;-73
2024/01/21 02:38:44;;;;;;;1.98;1.08;;;10.60;59.00;;;;;;5024018;28;20037;-72
2024/01/21 02:41:10;;;;;;;5.25;1.17;;;10.60;59.10;;;;;;5007487;28;20057;-73
2024/01/21 02:43:37;;;;;;;2.15;1.65;;;10.60;59.20;;;;;;5008677;28;20027;-73
2024/01/21 02:46:04;;;;;;;1.58;1.10;;;10.70;59.40;;;;;;5021098;23;20443;-75
2024/01/21 02:48:33;;;;;;;1.95;1.00;;;10.70;59.40;;;;;;5047504;28;20040;-75
2024/01/21 02:50:59;;;;;;;3.42;1.17;;;10.60;59.30;;;;;;5044891;28;20025;-75
2024/01/21 02:53:25;;;;;;;1.88;0.90;;;10.60;59.30;;;;;;5046156;28;20029;-74
2024/01/21 02:55:51;;;;;;;1.80;0.93;;;10.60;59.40;;;;;;5026924;28;20169;-75
2024/01/21 02:58:17;;;;;;;3.30;1.27;;;10.70;59.60;;;;;;5046492;28;20025;-75
2024/01/21 03:00:43;;;;;;;3.42;1.40;;;10.70;59.70;;;;;;5027507;28;20025;-75
2024/01/21 03:03:10;;;;;;;3.42;0.80;;;10.70;59.70;;;;;;5039770;28;20599;-75
2024/01/21 03:05:36;;;;;;;2.33;0.70;;;10.70;59.70;;;;;;5045539;28;20427;-75
2024/01/21 03:08:03;;;;;;;1.58;0.90;;;10.70;59.80;;;;;;5026927;28;20021;-74
2024/01/21 03:10:28;;;;;;;3.10;0.75;;;10.70;59.80;;;;;;5003424;28;20033;-75
2024/01/21 03:12:54;;;;;;;3.83;1.13;;;10.70;59.90;;;;;;4994013;28;20074;-74
2024/01/21 03:15:21;;;;;;;1.95;1.13;;;10.70;59.90;;;;;;5019349;28;20073;-75
2024/01/21 03:17:46;;;;;;;2.63;1.17;;;10.80;60.20;;;;;;4989386;28;20500;-74
2024/01/21 03:20:12;;;;;;;1.67;1.23;;;10.70;60.00;;;;;;5021958;28;20119;-74
2024/01/21 03:22:38;;;;;;;1.55;0.80;;;10.80;60.20;;;;;;5024406;28;20026;-74
2024/01/21 03:25:05;;;;;;;2.05;0.88;;;10.70;60.10;;;;;;5021162;28;20061;-74
2024/01/21 03:27:30;;;;;;;1.70;0.80;;;10.70;60.10;;;;;;5021197;28;20064;-74
2024/01/21 03:29:56;;;;;;;3.35;0.90;;;10.70;60.10;;;;;;5018096;28;20065;-76
2024/01/21 03:32:22;;;;;;;1.75;1.00;;;10.70;60.20;;;;;;5005308;28;20025;-75
2024/01/21 03:34:51;;;;;;;1.23;0.60;;;10.80;60.40;;;;;;5012382;28;20034;-76
2024/01/21 03:37:18;;;;;;;2.97;0.80;;;10.70;60.30;;;;;;4996390;28;20121;-73
2024/01/21 03:39:44;;;;;;;2.15;0.82;;;10.70;60.30;;;;;;4997537;28;20107;-75
2024/01/21 03:42:10;;;;;;;3.00;0.95;;;10.80;60.50;;;;;;5004488;28;20428;-75
2024/01/21 03:44:35;;;;;;;3.17;1.00;;;10.80;60.60;;;;;;5007627;28;20053;-74
2024/01/21 03:47:02;;;;;;;2.90;1.08;;;10.80;60.60;;;;;;4996345;28;20045;-75
2024/01/21 03:49:29;;;;;;;2.45;0.80;;;10.80;60.70;;;;;;4972449;28;20091;-76
2024/01/21 03:51:58;;;;;;;3.13;1.00;;;10.80;60.70;;;;;;4972776;28;20385;-75
2024/01/21 03:54:25;;;;;;;3.95;1.02;;;10.80;60.70;;;;;;4988109;28;20036;-75
2024/01/21 03:56:51;;;;;;;2.95;1.05;;;10.80;60.80;;;;;;5005465;28;20108;-75
2024/01/21 03:59:17;;;;;;;3.60;1.67;;;10.80;60.80;;;;;;4997875;28;20065;-75
2024/01/21 04:01:44;;;;;;;2.95;1.00;;;10.80;60.90;;;;;;4999890;28;20065;-76
2024/01/21 04:04:11;;;;;;;1.65;1.00;;;10.80;60.90;;;;;;4988638;28;20038;-75
2024/01/21 04:06:41;;;;;;;3.05;1.10;;;10.90;61.10;;;;;;4997887;28;20440;-75
2024/01/21 04:09:09;;;;;;;3.00;0.82;;;10.80;61.00;;;;;;5005129;28;20033;-74
2024/01/21 04:11:35;;;;;;;1.58;0.65;;;10.90;61.10;;;;;;4999382;28;20045;-74
2024/01/21 04:14:01;;;;;;;2.53;0.70;;;10.90;61.20;;;;;;4988295;28;20480;-75
2024/01/21 04:16:27;;;;;;;2.85;0.82;;;10.90;61.20;;;;;;5005645;28;20124;-76
2024/01/21 04:18:53;;;;;;;2.58;1.30;;;10.90;61.30;;;;;;5002582;28;20059;-75
2024/01/21 04:21:21;;;;;;;3.83;1.40;;;10.90;61.30;;;;;;5004542;28;20543;-75
2024/01/21 04:23:48;;;;;;;2.55;0.77;;;10.90;61.40;;;;;;4991856;28;20026;-75
2024/01/21 04:26:15;;;;;;;1.98;0.95;;;10.90;61.40;;;;;;5007418;28;20468;-74
2024/01/21 04:28:41;;;;;;;3.40;1.00;;;10.90;61.40;;;;;;5005977;28;20252;-75
2024/01/21 04:31:07;;;;;;;4.63;1.00;;;10.90;61.50;;;;;;5008950;28;20034;-75
2024/01/21 04:33:33;;;;;;;2.17;0.80;;;10.90;61.50;;;;;;5010601;28;20473;-75
2024/01/21 04:35:59;;;;;;;2.33;0.73;;;10.90;61.60;;;;;;4989780;28;20026;-75
2024/01/21 04:38:26;;;;;;;2.80;0.95;;;10.90;61.60;;;;;;5010171;28;20037;-77
2024/01/21 04:40:54;;;;;;;3.08;0.82;;;10.90;61.70;;;;;;4995012;28;20084;-75
2024/01/21 04:43:20;;;;;;;1.50;0.70;;;10.90;61.70;;;;;;5011120;28;20034;-75
2024/01/21 04:45:46;;;;;;;3.53;0.80;;;11.00;61.90;;;;;;5009551;28;20147;-75
2024/01/21 04:48:12;;;;;;;1.35;0.60;;;10.90;61.80;;;;;;5050318;28;20043;-75
2024/01/21 04:50:38;;;;;;;2.70;1.00;;;10.90;61.90;;;;;;5049528;28;20037;-75
2024/01/21 04:53:05;;;;;;;1.65;0.98;;;11.00;62.10;;;;;;5047439;28;20029;-75
2024/01/21 04:55:31;;;;;;;2.17;0.98;;;10.90;61.90;;;;;;5048846;28;20061;-75
2024/01/21 04:57:57;;;;;;;1.73;0.80;;;11.00;62.10;;;;;;5031461;28;20072;-76
2024/01/21 05:00:23;;;;;;;2.25;0.80;;;11.00;62.20;;;;;;5048076;28;20025;-74
2024/01/21 05:02:48;;;;;;;1.92;0.77;;;11.00;62.20;;;;;;5039538;28;20427;-74
2024/01/21 05:05:14;;;;;;;1.38;0.70;;;11.00;62.20;;;;;;5049011;28;20082;-74
2024/01/21 05:07:40;;;;;;;2.25;1.10;;;11.00;62.30;;;;;;5037792;28;20038;-75
2024/01/21 05:10:07;;;;;;;2.42;0.70;;;11.00;62.30;;;;;;5043083;28;20037;-74
2024/01/21 05:12:33;;;;;;;1.52;0.70;;;11.00;62.40;;;;;;5051319;28;20050;-74
2024/01/21 05:14:59;;;;;;;2.45;0.95;;;11.00;62.40;;;;;;5036249;28;20166;-75
2024/01/21 05:17:26;;;;;;;2.17;0.93;;;11.00;62.40;;;;;;5009470;28;20267;-75
2024/01/21 05:19:52;;;;;;;1.63;1.00;;;11.00;62.50;;;;;;5047668;28;20060;-75
2024/01/21 05:22:18;;;;;;;2.38;0.77;;;11.00;62.60;;;;;;5048463;28;20063;-75
2024/01/21 05:24:44;;;;;;;2.88;1.30;;;11.00;62.60;;;;;;5033815;28;20072;-75
2024/01/21 05:27:10;;;;;;;3.15;0.93;;;10.90;62.50;;;;;;5049413;28;20106;-74
2024/01/21 05:29:36;;;;;;;4.82;1.10;;;10.90;62.50;;;;;;5047482;28;20029;-73
2024/01/21 05:32:02;;;;;;;2.05;1.00;;;10.90;62.50;;;;;;5047007;28;20028;-76
2024/01/21 05:34:28;;;;;;;2.97;1.00;;;10.90;62.50;;;;;;5047323;28;20051;-75
2024/01/21 05:36:54;;;;;;;3.13;0.80;;;10.90;62.60;;;;;;5026197;28;20527;-74
2024/01/21 05:39:20;;;;;;;2.85;0.82;;;10.90;62.60;;;;;;5047113;28;20025;-74
2024/01/21 05:42:03;;;;;;;3.60;0.98;;;10.90;62.70;;;;;;5026728;28;20618;-75
2024/01/21 05:44:29;;;;;;;2.33;1.10;;;10.90;62.80;;;;;;5044416;28;20030;-74
2024/01/21 05:46:55;;;;;;;1.85;0.70;;;10.90;62.70;;;;;;5042607;28;20048;-75
2024/01/21 05:49:22;;;;;;;5.43;1.10;;;10.90;62.70;;;;;;5050818;28;20368;-74
2024/01/21 05:51:47;;;;;;;3.97;1.00;;;10.90;62.80;;;;;;5046534;28;20041;-75
2024/01/21 05:54:14;;;;;;;3.20;1.33;;;10.90;62.80;;;;;;5044587;28;20137;-76
2024/01/21 05:56:39;;;;;;;2.75;1.30;;;10.90;62.80;;;;;;5049405;28;20054;-74
2024/01/21 05:59:05;;;;;;;4.22;1.30;;;10.90;62.80;;;;;;5048254;28;20086;-74
2024/01/21 06:01:31;;;;;;;1.83;1.00;;;11.00;63.00;;;;;;5047387;28;20040;-73
2024/01/21 06:03:57;;;;;;;6.90;2.25;;;10.90;62.90;;;;;;5045201;28;20028;-74
2024/01/21 06:06:23;;;;;;;5.30;1.08;;;10.90;62.90;;;;;;5039909;28;20128;-76
2024/01/21 06:08:49;;;;;;;3.47;1.00;;;10.90;62.90;;;;;;5044898;28;20495;-76
2024/01/21 06:11:15;;;;;;;5.65;1.55;;;10.90;62.90;;;;;;5042980;28;20037;-74
2024/01/21 06:13:41;;;;;;;5.60;1.92;;;10.90;63.00;;;;;;5045648;28;20104;-73
2024/01/21 06:16:08;;;;;;;7.13;1.63;;;10.90;63.00;;;;;;5029444;28;20661;-75
2024/01/21 06:18:37;;;;;;;9.85;2.30;;;10.90;63.00;;;;;;5024012;28;20560;-75
2024/01/21 06:21:03;;;;;;;3.75;1.20;;;10.90;63.00;;;;;;5048489;28;20123;-75
2024/01/21 06:23:29;;;;;;;5.88;1.30;;;10.90;63.00;;;;;;5026802;28;20035;-75
2024/01/21 06:25:55;;;;;;;7.47;2.03;;;10.90;63.10;;;;;;5044096;28;20234;-75
2024/01/21 06:28:23;;;;;;;5.13;1.50;;;10.90;63.10;;;;;;5018299;28;20029;-76
2024/01/21 06:30:49;;;;;;;6.55;1.45;;;10.90;63.10;;;;;;5041611;28;20499;-77
2024/01/21 06:33:15;;;;;;;6.78;1.60;;;10.90;63.10;;;;;;5025119;28;20025;-76
2024/01/21 06:35:41;;;;;;;5.55;1.48;;;10.90;63.20;;;;;;5042140;28;20029;-75
2024/01/21 06:38:07;;;;;;;4.57;1.40;;;10.90;63.20;;;;;;5042326;28;20149;-75
2024/01/21 06:40:33;;;;;;;7.60;1.63;;;10.90;63.20;;;;;;5040348;28;20615;-76
2024/01/21 06:43:00;;;;;;;6.53;1.50;;;10.90;63.20;;;;;;5023474;28;20087;-76
2024/01/21 06:45:29;;;;;;;9.23;2.38;;;10.90;63.20;;;;;;5022981;28;20259;-76
2024/01/21 06:47:56;;;;;;;5.65;1.73;;;10.90;63.20;;;;;;5024349;28;20059;-75
2024/01/21 06:50:22;;;;;;;7.10;1.48;;;10.90;63.20;;;;;;5027479;28;20060;-76
2024/01/21 06:52:49;;;;;;;6.22;2.20;;;10.90;63.20;;;;;;5043103;28;20134;-76
2024/01/21 06:55:14;;;;;;;6.50;1.60;;;10.90;63.20;;;;;;5020126;28;20491;-76
2024/01/21 06:57:41;;;;;;;8.55;3.13;;;10.90;63.20;;;;;;5041296;28;20047;-77
2024/01/21 07:00:07;;;;;;;6.43;1.70;;;10.90;63.30;;;;;;5022959;28;20479;-75
2024/01/21 07:02:33;;;;;;;7.07;2.03;;;10.90;63.30;;;;;;5015026;28;20494;-77
2024/01/21 07:05:00;;;;;;;8.82;1.58;;;10.90;63.30;;;;;;5039057;28;20547;-77
2024/01/21 07:07:26;;;;;;;4.35;1.88;;;10.90;63.40;;;;;;5037379;28;20017;-78
2024/01/21 07:09:52;;;;;;;8.05;2.08;;;10.90;63.40;;;;;;5039876;28;20369;-76
2024/01/21 07:12:18;;;;;;;11.25;2.70;;;10.90;64.00;;;;;;5025515;28;20065;-77
2024/01/21 07:14:44;;;;;;;5.45;2.28;;;10.80;63.30;;;;;;5020019;28;20029;-76
2024/01/21 07:17:10;;;;;;;8.13;2.28;;;10.80;63.30;;;;;;5036670;28;20444;-75
2024/01/21 07:19:36;;;;;;;9.00;2.22;;;10.80;63.30;;;;;;5021941;28;20104;-76
2024/01/21 07:22:02;;;;;;;9.18;1.70;;;10.80;63.30;;;;;;5020278;28;20207;-77
2024/01/21 07:24:28;;;;;;;9.30;2.45;;;10.80;63.30;;;;;;5020833;28;20037;-75
2024/01/21 07:26:55;;;;;;;6.72;2.22;;;10.90;63.50;;;;;;5038199;28;20087;-74
2024/01/21 07:29:20;;;;;;;9.88;2.38;;;10.80;63.30;;;;;;5039945;28;20435;-75
2024/01/21 07:31:47;;;;;;;7.78;2.72;;;10.90;63.40;;;;;;5037900;28;20419;-76
2024/01/21 07:34:13;;;;;;;8.32;1.90;;;10.90;63.40;;;;;;5022040;28;20210;-76
2024/01/21 07:36:39;;;;;;;9.52;2.25;;;10.90;63.50;;;;;;5036414;28;20354;-75
2024/01/21 07:39:06;;;;;;;9.20;2.45;;;10.90;63.50;;;;;;5037493;28;20035;-75
2024/01/21 07:41:32;;;;;;;10.45;1.80;;;10.90;63.50;;;;;;5016688;28;20350;-77
2024/01/21 07:43:59;;;;;;;8.02;2.83;;;10.80;63.30;;;;;;5013765;28;20373;-74
2024/01/21 07:46:25;;;;;;;10.25;2.53;;;10.90;63.50;;;;;;5030640;28;20195;-77
2024/01/21 07:48:51;;;;;;;9.80;2.65;;;10.90;63.70;;;;;;5018210;28;20025;-77
2024/01/21 07:51:19;;;;;;;10.77;2.88;;;10.80;63.40;;;;;;5004191;28;20416;-77
2024/01/21 07:53:45;;;;;;;6.25;1.60;;;10.90;63.60;;;;;;5004780;28;20384;-77
2024/01/21 07:56:12;;;;;;;14.70;2.15;;;10.80;63.50;;;;;;5037856;28;20032;-76
2024/01/21 07:58:39;;;;;;;9.63;2.03;;;10.90;64.00;;;;;;5038991;28;20146;-77
2024/01/21 08:01:10;;;;;;;10.10;1.98;;;10.90;64.30;;;;;;5036824;28;20037;-74
2024/01/21 08:03:36;;;;;;;7.35;2.47;;;11.00;64.60;;;;;;5020274;28;20403;-76
2024/01/21 08:06:07;;;;;;;11.45;3.08;;;11.00;64.70;;;;;;5004199;28;20550;-77
2024/01/21 08:08:33;;;;;;;12.23;2.03;;;11.10;65.50;;;;;;5002631;28;20143;-75
2024/01/21 08:11:00;;;;;;;22.50;3.55;;;11.20;65.30;;;;;;5032023;28;20033;-78
2024/01/21 08:13:26;;;;;;;18.83;4.38;;;11.20;65.40;;;;;;5027627;28;20025;-77
2024/01/21 08:15:53;;;;;;;14.73;2.55;;;11.30;65.90;;;;;;5037861;28;20487;-76
2024/01/21 08:18:19;;;;;;;16.05;3.63;;;11.40;66.30;;;;;;5039842;28;20037;-76
2024/01/21 08:20:46;;;;;;;10.13;2.72;;;11.60;66.60;;;;;;5015289;28;20036;-79
2024/01/21 08:23:13;;;;;;;11.65;2.88;;;11.80;66.80;;;;;;5012053;28;20025;-78
2024/01/21 08:25:39;;;;;;;13.05;3.00;;;12.10;67.00;;;;;;5038200;28;20527;-77
2024/01/21 08:28:05;;;;;;;14.27;3.30;;;12.30;66.90;;;;;;5002496;28;20037;-75
2024/01/21 08:30:31;;;;;;;11.27;2.47;;;12.50;66.90;;;;;;5029592;28;20037;-76
2024/01/21 08:32:57;;;;;;;10.25;3.05;;;12.70;66.80;;;;;;5031646;28;20037;-78
2024/01/21 08:35:23;;;;;;;15.93;3.33;;;12.90;66.80;;;;;;5002398;28;20037;-78
2024/01/21 08:37:49;;;;;;;11.73;2.85;;;13.20;66.90;;;;;;5043711;28;20028;-76
2024/01/21 08:40:15;;;;;;;8.68;2.55;;;13.30;66.60;;;;;;5038079;28;20033;-77
2024/01/21 08:42:42;;;;;;;8.02;2.33;;;13.50;66.60;;;;;;5038815;28;20025;-76
2024/01/21 08:45:08;;;;;;;11.43;3.35;;;13.60;66.40;;;;;;5044187;28;20369;-77
2024/01/21 08:47:35;;;;;;;6.97;1.98;;;13.80;66.40;;;;;;5039286;28;20129;-77
2024/01/21 08:50:02;;;;;;;8.63;3.00;;;14.00;66.50;;;;;;5043440;28;20045;-77
2024/01/21 08:52:29;;;;;;;10.52;3.70;;;14.10;66.30;;;;;;5045689;28;20035;-77
2024/01/21 08:54:55;;;;;;;6.32;1.95;;;14.20;66.20;;;;;;5039286;28;20037;-76
2024/01/21 08:57:22;;;;;;;6.72;1.88;;;14.30;66.00;;;;;;5041348;28;20115;-77
2024/01/21 08:59:51;;;;;;;9.07;2.58;;;14.50;66.10;;;;;;5041596;28;20048;-76
2024/01/21 09:02:18;;;;;;;10.25;1.90;;;14.60;66.50;;;;;;5022023;28;20037;-76
2024/01/21 09:04:45;;;;;;;7.35;1.85;;;14.70;65.80;;;;;;5012240;28;20095;-75
2024/01/21 09:07:12;;;;;;;6.50;1.55;;;14.80;65.60;;;;;;5012085;28;20159;-77
2024/01/21 09:09:38;;;;;;;8.70;1.67;;;15.00;65.70;;;;;;5019846;28;20040;-77
2024/01/21 09:12:05;;;;;;;8.48;2.17;;;15.10;65.50;;;;;;5023467;28;20507;-76
2024/01/21 09:14:31;;;;;;;7.10;1.67;;;15.20;65.30;;;;;;5019579;28;20025;-75
2024/01/21 09:16:56;;;;;;;8.10;1.73;;;15.30;65.10;;;;;;5040938;28;20040;-77
2024/01/21 09:19:22;;;;;;;8.90;2.40;;;15.40;65.00;;;;;;5020673;28;20025;-76
2024/01/21 09:21:48;;;;;;;8.50;2.45;;;15.40;64.70;;;;;;5033274;28;20032;-76
2024/01/21 09:24:17;;;;;;;6.95;1.58;;;15.50;64.60;;;;;;5035376;28;20619;-76
2024/01/21 09:26:43;;;;;;;6.53;1.98;;;15.60;64.60;;;;;;5043535;28;20450;-77
2024/01/21 09:29:09;;;;;;;7.18;2.05;;;15.70;64.50;;;;;;5017182;28;20843;-75
2024/01/21 09:31:35;;;;;;;6.90;2.00;;;15.70;64.30;;;;;;5040550;28;20112;-74
2024/01/21 09:34:01;;;;;;;5.78;1.83;;;15.80;64.30;;;;;;5039753;28;20406;-76
2024/01/21 09:36:28;;;;;;;5.20;2.13;;;15.80;64.30;;;;;;5014978;28;20037;-75
2024/01/21 09:38:54;;;;;;;342.38;304.23;;;15.90;64.50;;;;;;5018150;28;20453;-76
2024/01/21 09:41:29;;;;;;;575.40;513.75;;;15.90;64.70;;;;;;5041690;28;20037;-76
2024/01/21 09:43:58;;;;;;;512.30;456.50;;;16.00;65.30;;;;;;5034784;28;20488;-74
2024/01/21 09:46:26;;;;;;;471.80;411.33;;;16.10;66.00;;;;;;5038899;28;20061;-76
2024/01/21 09:48:54;;;;;;;542.35;478.33;;;16.20;66.70;;;;;;5020243;28;20143;-76
2024/01/21 09:51:22;;;;;;;501.15;445.80;;;16.30;67.50;;;;;;5010276;28;20079;-75
2024/01/21 09:53:49;;;;;;;422.50;373.88;;;16.40;68.10;;;;;;5036265;28;20508;-75
2024/01/21 09:56:17;;;;;;;382.13;330.88;;;16.40;68.20;;;;;;5021689;28;20044;-75
2024/01/21 09:58:45;;;;;;;340.75;302.50;;;16.50;68.10;;;;;;5023072;28;20830;-74
2024/01/21 10:01:12;;;;;;;312.27;277.38;;;16.60;67.90;;;;;;5028907;28;20041;-75
2024/01/21 10:03:39;;;;;;;289.85;257.02;;;16.60;67.50;;;;;;5039901;28;20037;-75
2024/01/21 10:06:05;;;;;;;281.45;248.05;;;16.70;67.20;;;;;;5041403;28;20057;-74
2024/01/21 10:08:31;;;;;;;245.52;218.13;;;16.70;66.80;;;;;;5032799;28;20040;-75
2024/01/21 10:11:03;;;;;;;227.63;202.23;;;16.80;66.50;;;;;;5013995;28;20037;-74
2024/01/21 10:13:38;;;;;;;217.82;187.38;;;16.90;66.10;;;;;;5034259;28;20080;-74
2024/01/21 10:16:06;;;;;;;210.15;187.10;;;16.90;65.60;;;;;;5030747;28;20738;-75
2024/01/21 10:18:32;;;;;;;198.00;175.55;;;17.00;65.30;;;;;;5035131;28;20029;-74
2024/01/21 10:21:01;;;;;;;188.38;166.20;;;17.10;64.90;;;;;;5033678;28;20022;-75
2024/01/21 10:23:27;;;;;;;187.88;163.63;;;17.10;64.50;;;;;;5026619;28;20037;-74
2024/01/21 10:25:53;;;;;;;164.63;146.68;;;17.20;64.20;;;;;;5029733;28;20402;-74
2024/01/21 10:28:20;;;;;;;162.25;141.68;;;17.30;63.90;;;;;;5034072;28;20044;-77
2024/01/21 10:30:46;;;;;;;145.38;129.35;;;17.30;63.30;;;;;;5029856;28;20111;-77
2024/01/21 10:33:13;;;;;;;101.20;85.10;;;17.40;63.10;;;;;;5040941;28;20040;-78
2024/01/21 10:35:42;;;;;;;49.33;35.85;;;17.50;62.90;;;;;;5004651;28;20047;-75
2024/01/21 10:38:12;;;;;;;32.35;21.92;;;17.50;62.40;;;;;;5031560;28;20123;-78
2024/01/21 10:40:43;;;;;;;25.52;13.02;;;17.30;61.70;;;;;;5032861;28;20046;-77
2024/01/21 10:43:16;;;;;;;30.10;12.05;;;17.10;61.40;;;;;;5038884;28;20579;-78
2024/01/21 10:45:45;;;;;;;19.58;6.72;;;16.90;61.10;;;;;;5031607;28;20254;-77
2024/01/21 10:48:15;;;;;;;20.38;6.97;;;16.70;61.20;;;;;;5035430;28;20034;-76
2024/01/21 10:50:44;;;;;;;20.40;7.53;;;16.40;61.00;;;;;;5030879;28;20131;-78
2024/01/21 10:53:11;;;;;;;23.67;7.40;;;16.20;61.10;;;;;;5017070;28;20479;-78
2024/01/21 10:55:42;;;;;;;23.63;7.05;;;16.00;61.10;;;;;;5030284;28;20037;-77
2024/01/21 10:58:09;;;;;;;24.85;6.85;;;15.80;61.10;;;;;;5035786;28;20166;-77
2024/01/21 11:00:37;;;;;;;21.67;5.97;;;15.70;61.20;;;;;;5031942;28;20405;-78
2024/01/21 11:03:31;;;;;;;23.95;6.13;;;15.60;61.20;;;;;;5039262;28;20032;-76
2024/01/21 11:05:59;;;;;;;19.75;5.72;;;15.40;61.00;;;;;;5037204;28;20037;-77
2024/01/21 11:08:26;;;;;;;23.85;8.43;;;15.30;61.20;;;;;;5021496;28;20067;-76
2024/01/21 11:11:12;;;;;;;25.90;11.10;;;15.20;61.30;;;;;;5030776;28;20080;-74
2024/01/21 11:13:49;;;;;;;24.45;13.82;;;15.20;61.40;;;;;;5033169;28;20060;-75
2024/01/21 11:16:29;;;;;;;25.80;18.13;;;15.20;61.50;;;;;;5033447;28;20287;-76
2024/01/21 11:19:05;;;;;;;28.35;17.40;;;15.30;61.50;;;;;;5022877;28;20570;-76
2024/01/21 11:21:33;;;;;;;31.50;17.55;;;15.50;61.60;;;;;;5031309;28;20028;-76
2024/01/21 11:23:59;;;;;;;25.25;16.08;;;15.60;61.30;;;;;;5033621;28;20499;-76
2024/01/21 11:26:28;;;;;;;25.33;16.15;;;15.90;61.30;;;;;;5038231;28;20040;-76
2024/01/21 11:28:57;;;;;;;25.33;14.48;;;16.00;60.80;;;;;;5034206;28;20040;-75
2024/01/21 11:31:25;;;;;;;23.00;15.50;;;16.20;60.50;;;;;;5025437;28;20029;-75
2024/01/21 11:34:05;;;;;;;20.33;14.10;;;16.40;60.40;;;;;;5036351;28;20072;-75
2024/01/21 11:36:33;;;;;;;19.65;13.13;;;16.60;59.90;;;;;;5037557;28;20033;-75
2024/01/21 11:39:00;;;;;;;20.02;13.65;;;16.80;59.90;;;;;;5032032;28;20033;-77
2024/01/21 11:41:37;;;;;;;18.83;12.55;;;16.90;59.60;;;;;;5018442;28;20029;-77
2024/01/21 11:44:13;;;;;;;19.85;12.10;;;17.10;59.20;;;;;;5034176;28;20104;-77
2024/01/21 11:46:41;;;;;;;17.67;11.68;;;17.20;59.00;;;;;;5031964;28;20132;-76
2024/01/21 11:49:08;;;;;;;16.83;11.02;;;17.30;58.80;;;;;;5033739;28;20140;-75
2024/01/21 11:51:36;;;;;;;19.80;11.10;;;17.40;58.60;;;;;;4997801;28;20434;-75
2024/01/21 11:54:02;;;;;;;16.05;9.65;;;17.50;58.40;;;;;;5030568;28;20024;-76
2024/01/21 11:56:28;;;;;;;14.68;9.55;;;17.60;58.30;;;;;;5031323;28;20033;-76
2024/01/21 11:58:54;;;;;;;15.35;9.27;;;17.70;58.10;;;;;;5038341;28;20466;-77
2024/01/21 12:01:22;;;;;;;13.55;8.48;;;17.70;57.90;;;;;;5034733;28;20045;-76
2024/01/21 12:03:48;;;;;;;15.73;9.60;;;17.80;57.80;;;;;;5037210;28;20043;-76
2024/01/21 12:06:16;;;;;;;20.63;9.88;;;17.90;57.70;;;;;;5015817;28;20578;-79
2024/01/21 12:08:45;;;;;;;19.17;9.70;;;18.00;57.70;;;;;;5017865;28;20086;-77
2024/01/21 12:11:13;;;;;;;16.45;8.88;;;18.10;57.70;;;;;;5007483;28;20025;-76
2024/01/21 12:13:40;;;;;;;47.50;24.30;;;18.10;57.60;;;;;;5027283;28;20083;-76
2024/01/21 12:16:08;;;;;;;37.35;21.83;;;18.20;57.70;;;;;;5034449;28;20029;-77
2024/01/21 12:18:41;;;;;;;30.42;19.23;;;18.20;57.80;;;;;;5018080;28;20128;-76
2024/01/21 12:21:10;;;;;;;29.40;16.55;;;18.30;58.10;;;;;;4993400;28;20116;-76
2024/01/21 12:23:46;;;;;;;30.90;17.17;;;18.30;58.20;;;;;;5031817;28;20033;-77
2024/01/21 12:26:20;;;;;;;24.58;16.30;;;18.40;58.50;;;;;;5008272;28;20076;-77
2024/01/21 12:28:59;;;;;;;26.98;17.30;;;18.40;58.60;;;;;;5010270;28;20041;-78
2024/01/21 12:31:32;;;;;;;26.45;15.63;;;18.50;58.80;;;;;;5010299;28;20038;-78
2024/01/21 12:34:01;;;;;;;25.77;15.20;;;18.50;58.90;;;;;;5015334;28;20033;-77
2024/01/21 12:36:29;;;;;;;36.65;16.70;;;18.50;58.90;;;;;;5014277;28;20298;-77
2024/01/21 12:38:56;;;;;;;24.33;14.43;;;18.60;59.10;;;;;;5034674;28;20083;-77
2024/01/21 12:41:22;;;;;;;23.85;14.55;;;18.60;59.20;;;;;;5032732;28;20203;-76
2024/01/21 12:43:49;;;;;;;21.67;14.38;;;18.60;59.10;;;;;;5015256;28;20064;-78
2024/01/21 12:46:20;;;;;;;25.77;13.05;;;18.70;59.20;;;;;;5029810;28;20041;-76